Time;durP1;ratioP1;P1;durP2;ratioP2;P2;SDS_P1;SDS_P2;PMS_P1;PMS_P2;Temp;Humidity;BMP_temperature;BMP_pressure;BME280_temperature;BME280_humidity;BME280_pressure;Samples;Min_cycle;Max_cycle;Signal;HPM_P1;HPM_P2
2022/07/05 00:00:57;;;;;;;8.25;2.83;;;14.70;99.90;;;;;;5066804;28;20196;-77
2022/07/05 00:03:23;;;;;;;8.95;3.20;;;14.70;99.90;;;;;;5033929;28;20040;-77
2022/07/05 00:05:49;;;;;;;7.88;2.78;;;14.70;99.90;;;;;;5050081;28;20128;-77
2022/07/05 00:08:15;;;;;;;7.30;2.63;;;14.60;99.90;;;;;;5033527;28;20040;-77
2022/07/05 00:10:41;;;;;;;7.45;2.67;;;14.60;99.90;;;;;;5050099;28;20041;-77
2022/07/05 00:13:07;;;;;;;8.93;2.70;;;14.60;99.90;;;;;;5050241;28;20203;-77
2022/07/05 00:15:34;;;;;;;9.60;3.20;;;14.60;99.90;;;;;;5066903;28;20461;-77
2022/07/05 00:17:59;;;;;;;8.38;2.80;;;14.50;99.90;;;;;;5050312;28;20044;-77
2022/07/05 00:20:25;;;;;;;7.55;2.83;;;14.50;99.90;;;;;;5067110;28;20375;-77
2022/07/05 00:22:51;;;;;;;9.27;3.20;;;14.50;99.90;;;;;;5049932;28;20517;-77
2022/07/05 00:25:17;;;;;;;9.68;3.03;;;14.50;99.90;;;;;;5066958;28;20040;-77
2022/07/05 00:27:43;;;;;;;7.20;2.75;;;14.50;99.90;;;;;;5033570;28;20040;-77
2022/07/05 00:30:10;;;;;;;7.22;2.72;;;14.50;99.90;;;;;;5055690;28;20695;-77
2022/07/05 00:32:37;;;;;;;7.93;2.92;;;14.50;99.90;;;;;;5064253;28;20355;-77
2022/07/05 00:35:06;;;;;;;7.38;2.85;;;14.40;99.90;;;;;;5057048;28;20036;-77
2022/07/05 00:37:32;;;;;;;8.90;3.00;;;14.40;99.90;;;;;;5053358;28;20119;-77
2022/07/05 00:39:58;;;;;;;8.27;2.70;;;14.40;99.90;;;;;;5072166;28;20166;-77
2022/07/05 00:42:24;;;;;;;9.82;2.60;;;14.30;99.90;;;;;;5053344;28;20120;-77
2022/07/05 00:44:50;;;;;;;7.68;2.80;;;14.20;99.90;;;;;;5037407;28;20212;-76
2022/07/05 00:47:15;;;;;;;7.60;2.95;;;14.30;99.90;;;;;;5053568;28;20040;-77
2022/07/05 00:49:42;;;;;;;7.80;2.60;;;14.30;99.90;;;;;;5053961;28;20040;-77
2022/07/05 00:52:09;;;;;;;8.07;2.72;;;14.30;99.90;;;;;;5053376;28;20601;-77
2022/07/05 00:54:37;;;;;;;8.43;2.85;;;14.20;99.90;;;;;;5066222;28;20050;-77
2022/07/05 00:57:03;;;;;;;7.45;2.90;;;14.20;99.90;;;;;;5073337;28;20105;-77
2022/07/05 00:59:30;;;;;;;7.38;2.67;;;14.20;99.90;;;;;;5073650;28;20047;-77
2022/07/05 01:01:57;;;;;;;7.68;2.80;;;14.10;99.90;;;;;;5073231;28;20137;-77
2022/07/05 01:04:23;;;;;;;9.77;3.33;;;14.10;99.90;;;;;;5090399;28;20204;-77
2022/07/05 01:06:50;;;;;;;9.35;3.08;;;14.10;99.90;;;;;;5073157;28;20040;-77
2022/07/05 01:09:18;;;;;;;7.38;2.80;;;14.10;99.90;;;;;;5056786;28;20036;-77
2022/07/05 01:11:44;;;;;;;8.02;3.00;;;14.00;99.90;;;;;;5090009;28;20047;-77
2022/07/05 01:14:15;;;;;;;9.73;2.83;;;14.00;99.90;;;;;;5073244;28;20048;-77
2022/07/05 01:16:41;;;;;;;7.97;3.10;;;14.00;99.90;;;;;;5073047;28;20043;-77
2022/07/05 01:19:09;;;;;;;8.15;2.92;;;14.00;99.90;;;;;;5053292;28;20058;-76
2022/07/05 01:21:43;;;;;;;7.60;3.00;;;14.00;99.90;;;;;;5052918;28;20131;-77
2022/07/05 01:24:11;;;;;;;9.07;3.22;;;14.00;99.90;;;;;;5069931;28;20465;-77
2022/07/05 01:26:38;;;;;;;7.15;2.97;;;13.90;99.90;;;;;;5069711;28;20398;-77
2022/07/05 01:29:04;;;;;;;8.05;3.20;;;13.90;99.90;;;;;;5070064;28;20376;-77
2022/07/05 01:31:30;;;;;;;9.27;3.40;;;13.90;99.90;;;;;;5036249;28;20039;-77
2022/07/05 01:33:55;;;;;;;9.05;3.33;;;13.90;99.90;;;;;;5052874;28;20044;-76
2022/07/05 01:36:22;;;;;;;7.97;3.42;;;13.90;99.90;;;;;;5052847;28;20037;-77
2022/07/05 01:38:48;;;;;;;7.15;2.63;;;13.80;99.90;;;;;;5052924;28;20045;-77
2022/07/05 01:41:14;;;;;;;8.15;3.25;;;13.80;99.90;;;;;;5036035;28;20036;-76
2022/07/05 01:43:40;;;;;;;9.93;3.67;;;13.70;99.90;;;;;;5036126;28;20055;-77
2022/07/05 01:46:08;;;;;;;9.10;3.28;;;13.70;99.90;;;;;;5035703;28;20044;-77
2022/07/05 01:48:36;;;;;;;7.75;2.95;;;13.70;99.90;;;;;;5069159;28;20499;-77
2022/07/05 01:51:09;;;;;;;7.80;3.28;;;13.70;99.90;;;;;;5051967;28;20545;-77
2022/07/05 01:53:38;;;;;;;10.70;3.60;;;13.70;99.90;;;;;;5057234;28;20077;-77
2022/07/05 01:56:04;;;;;;;10.20;3.78;;;13.70;99.90;;;;;;5089328;28;20046;-77
2022/07/05 01:58:31;;;;;;;8.68;3.63;;;13.60;99.90;;;;;;5074396;28;20410;-77
2022/07/05 02:00:58;;;;;;;9.57;3.63;;;13.60;99.90;;;;;;5052404;28;20129;-77
2022/07/05 02:03:26;;;;;;;8.10;3.50;;;13.60;99.90;;;;;;5052660;28;20097;-77
2022/07/05 02:05:52;;;;;;;8.88;3.47;;;13.50;99.90;;;;;;5051803;28;20049;-77
2022/07/05 02:08:19;;;;;;;7.00;3.10;;;13.50;99.90;;;;;;5069151;28;20051;-77
2022/07/05 02:10:45;;;;;;;8.77;3.30;;;13.50;99.90;;;;;;5052278;28;20065;-77
2022/07/05 02:13:11;;;;;;;8.65;3.28;;;13.50;99.90;;;;;;5069306;28;20033;-76
2022/07/05 02:15:39;;;;;;;8.23;3.55;;;13.50;99.90;;;;;;5068979;28;20499;-77
2022/07/05 02:18:06;;;;;;;8.02;3.50;;;13.50;99.90;;;;;;5069038;28;20174;-76
2022/07/05 02:20:33;;;;;;;9.25;3.40;;;13.50;99.90;;;;;;5052189;28;20109;-76
2022/07/05 02:22:59;;;;;;;8.27;3.60;;;13.50;99.90;;;;;;5068294;28;20053;-77
2022/07/05 02:25:25;;;;;;;8.57;3.30;;;13.50;99.90;;;;;;5051652;28;20235;-77
2022/07/05 02:27:52;;;;;;;10.40;3.75;;;13.50;99.90;;;;;;5068584;28;20058;-77
2022/07/05 02:30:18;;;;;;;10.88;3.58;;;13.50;99.90;;;;;;5051771;28;20068;-76
2022/07/05 02:32:44;;;;;;;7.93;3.22;;;13.50;99.90;;;;;;5051516;28;20068;-77
2022/07/05 02:35:11;;;;;;;8.07;3.28;;;13.50;99.90;;;;;;5070992;28;20048;-76
2022/07/05 02:37:39;;;;;;;8.38;3.40;;;13.40;99.90;;;;;;5055332;28;20043;-76
2022/07/05 02:40:06;;;;;;;8.60;3.65;;;13.40;99.90;;;;;;5072250;28;20063;-76
2022/07/05 02:42:32;;;;;;;7.60;3.30;;;13.40;99.90;;;;;;5051711;28;20044;-76
2022/07/05 02:44:58;;;;;;;8.05;3.28;;;13.40;99.90;;;;;;5035012;28;20063;-76
2022/07/05 02:47:23;;;;;;;7.70;3.63;;;13.40;99.90;;;;;;5067992;28;20044;-77
2022/07/05 02:49:49;;;;;;;9.73;3.40;;;13.40;99.90;;;;;;5035121;28;20502;-77
2022/07/05 02:52:15;;;;;;;9.38;3.45;;;13.40;99.90;;;;;;5051413;28;20399;-76
2022/07/05 02:54:41;;;;;;;9.13;4.00;;;13.40;99.90;;;;;;5018414;28;20363;-77
2022/07/05 02:57:06;;;;;;;8.35;3.90;;;13.30;99.90;;;;;;5051019;28;20044;-76
2022/07/05 02:59:32;;;;;;;11.57;3.78;;;13.30;99.90;;;;;;5034890;28;20144;-76
2022/07/05 03:01:58;;;;;;;8.18;3.40;;;13.30;99.90;;;;;;5034440;28;20051;-77
2022/07/05 03:04:23;;;;;;;8.50;3.55;;;13.30;99.90;;;;;;5051259;28;20414;-76
2022/07/05 03:06:49;;;;;;;8.20;3.58;;;13.30;99.90;;;;;;5067373;28;20040;-77
2022/07/05 03:09:15;;;;;;;8.30;3.45;;;13.20;99.90;;;;;;5035359;28;20036;-76
2022/07/05 03:11:40;;;;;;;8.95;3.88;;;13.20;99.90;;;;;;5070880;28;20032;-77
2022/07/05 03:14:06;;;;;;;8.98;3.92;;;13.20;99.90;;;;;;5054394;28;20595;-77
2022/07/05 03:16:33;;;;;;;9.95;3.80;;;13.20;99.90;;;;;;5067301;28;20036;-76
2022/07/05 03:18:59;;;;;;;7.40;3.10;;;13.20;99.90;;;;;;5051395;28;20402;-76
2022/07/05 03:21:25;;;;;;;8.48;3.50;;;13.20;99.90;;;;;;5067164;28;20052;-76
2022/07/05 03:23:50;;;;;;;8.88;3.47;;;13.20;99.90;;;;;;5034406;28;20083;-77
2022/07/05 03:26:16;;;;;;;7.30;3.47;;;13.20;99.90;;;;;;5033944;28;20040;-77
2022/07/05 03:28:42;;;;;;;10.70;4.07;;;13.20;99.90;;;;;;5051257;28;20040;-77
2022/07/05 03:31:08;;;;;;;8.60;3.60;;;13.20;99.90;;;;;;5017372;28;20407;-77
2022/07/05 03:33:34;;;;;;;8.90;3.53;;;13.20;99.90;;;;;;5067675;28;20054;-77
2022/07/05 03:36:00;;;;;;;10.98;3.78;;;13.20;99.90;;;;;;5067019;28;20520;-77
2022/07/05 03:38:26;;;;;;;9.10;3.47;;;13.20;99.90;;;;;;5050572;28;20075;-77
2022/07/05 03:40:51;;;;;;;8.07;3.50;;;13.20;99.90;;;;;;5033918;28;20131;-76
2022/07/05 03:43:17;;;;;;;10.10;4.10;;;13.20;99.90;;;;;;5017977;28;20132;-76
2022/07/05 03:45:43;;;;;;;9.55;3.80;;;13.20;99.90;;;;;;5033762;28;20198;-76
2022/07/05 03:48:08;;;;;;;8.60;3.42;;;13.20;99.90;;;;;;5050298;28;20029;-76
2022/07/05 03:50:34;;;;;;;9.00;3.92;;;13.20;99.90;;;;;;5033946;28;20036;-76
2022/07/05 03:53:00;;;;;;;8.38;3.85;;;13.20;99.90;;;;;;5050284;28;20073;-76
2022/07/05 03:55:25;;;;;;;9.43;3.97;;;13.30;99.90;;;;;;5036736;28;20261;-76
2022/07/05 03:57:51;;;;;;;8.82;3.83;;;13.20;99.90;;;;;;5066863;28;20048;-76
2022/07/05 04:00:17;;;;;;;8.60;3.90;;;13.30;99.90;;;;;;5033701;28;20050;-76
2022/07/05 04:02:43;;;;;;;8.02;3.72;;;13.30;99.90;;;;;;5050293;28;20359;-76
2022/07/05 04:05:09;;;;;;;10.50;3.80;;;13.30;99.90;;;;;;5034004;28;20044;-76
2022/07/05 04:07:46;;;;;;;8.90;3.85;;;13.30;99.90;;;;;;5050177;28;20072;-77
2022/07/05 04:10:11;;;;;;;8.20;3.58;;;13.40;99.90;;;;;;5050609;28;20398;-77
2022/07/05 04:12:37;;;;;;;9.05;3.60;;;13.40;99.90;;;;;;5033598;28;20044;-76
2022/07/05 04:15:03;;;;;;;8.30;3.58;;;13.50;99.90;;;;;;5036150;28;20068;-76
2022/07/05 04:17:29;;;;;;;9.15;3.80;;;13.50;99.90;;;;;;5042852;28;20036;-76
2022/07/05 04:19:55;;;;;;;9.63;3.67;;;13.60;99.90;;;;;;5054301;28;20140;-76
2022/07/05 04:22:21;;;;;;;8.50;3.53;;;13.70;99.90;;;;;;5054015;28;20120;-76
2022/07/05 04:27:31;;;;;;;8.80;3.78;;;13.80;99.90;;;;;;5056732;28;20405;-76
2022/07/05 04:29:56;;;;;;;9.38;3.67;;;13.90;99.90;;;;;;5038143;28;20127;-76
2022/07/05 04:32:22;;;;;;;9.15;3.90;;;13.90;99.90;;;;;;5020839;28;20495;-77
2022/07/05 04:34:48;;;;;;;9.38;3.92;;;14.00;99.90;;;;;;5054385;28;20052;-77
2022/07/05 04:37:13;;;;;;;8.93;3.53;;;14.00;99.90;;;;;;5056217;28;20040;-77
2022/07/05 04:39:39;;;;;;;7.90;3.50;;;14.00;99.90;;;;;;5054397;28;20045;-76
2022/07/05 04:42:05;;;;;;;9.32;3.65;;;14.00;99.90;;;;;;5069979;28;20503;-78
2022/07/05 04:44:31;;;;;;;9.13;3.83;;;14.10;99.90;;;;;;5053958;28;20037;-77
2022/07/05 04:46:56;;;;;;;9.27;3.45;;;14.20;99.90;;;;;;5036937;28;20032;-76
2022/07/05 04:49:22;;;;;;;8.13;3.40;;;14.40;99.90;;;;;;5037545;28;20121;-77
2022/07/05 04:51:48;;;;;;;8.98;3.28;;;14.40;99.90;;;;;;5036997;28;20440;-77
2022/07/05 04:54:13;;;;;;;8.82;3.60;;;14.50;99.90;;;;;;5047062;28;20039;-77
2022/07/05 04:56:39;;;;;;;10.27;3.28;;;14.70;99.90;;;;;;5090657;28;20476;-77
2022/07/05 04:59:05;;;;;;;8.07;3.25;;;14.80;99.90;;;;;;5073778;28;20376;-77
2022/07/05 05:01:30;;;;;;;10.82;3.40;;;14.80;99.90;;;;;;5056877;28;20040;-77
2022/07/05 05:03:56;;;;;;;8.18;3.28;;;15.00;99.90;;;;;;5056921;28;20039;-77
2022/07/05 05:06:22;;;;;;;7.32;3.10;;;15.00;99.90;;;;;;5073008;28;20108;-77
2022/07/05 05:08:47;;;;;;;9.00;3.28;;;15.20;99.90;;;;;;5072022;28;20032;-78
2022/07/05 05:11:13;;;;;;;7.82;3.00;;;15.20;99.90;;;;;;5069952;28;20036;-77
2022/07/05 05:13:39;;;;;;;7.70;2.85;;;15.30;99.90;;;;;;5054517;28;20414;-76
2022/07/05 05:16:05;;;;;;;7.25;2.92;;;15.40;99.90;;;;;;5073333;28;20123;-77
2022/07/05 05:18:31;;;;;;;7.60;2.97;;;15.50;99.90;;;;;;5073706;28;20493;-76
2022/07/05 05:20:57;;;;;;;6.97;2.58;;;15.70;99.90;;;;;;5072916;28;20518;-76
2022/07/05 05:23:22;;;;;;;8.23;2.40;;;15.80;99.90;;;;;;5040033;28;20510;-76
2022/07/05 05:25:48;;;;;;;8.52;2.80;;;15.70;99.90;;;;;;5089116;28;20043;-76
2022/07/05 05:28:14;;;;;;;7.82;2.55;;;15.80;99.90;;;;;;5090296;28;20069;-77
2022/07/05 05:30:40;;;;;;;5.97;2.22;;;15.80;99.90;;;;;;5073154;28;20518;-77
2022/07/05 05:33:05;;;;;;;7.30;2.60;;;15.80;99.90;;;;;;5056060;28;20510;-76
2022/07/05 05:35:31;;;;;;;7.22;2.50;;;15.80;99.90;;;;;;5085873;28;20036;-77
2022/07/05 05:37:57;;;;;;;7.28;2.20;;;15.90;99.90;;;;;;5046711;28;20445;-77
2022/07/05 05:40:23;;;;;;;6.32;2.30;;;16.10;99.90;;;;;;5039522;28;20494;-76
2022/07/05 05:42:52;;;;;;;8.07;2.42;;;16.10;99.90;;;;;;5072308;28;20097;-77
2022/07/05 05:45:18;;;;;;;8.00;2.50;;;16.20;99.90;;;;;;5089252;28;20212;-77
2022/07/05 05:47:50;;;;;;;8.32;2.47;;;16.40;99.90;;;;;;5072821;28;20549;-76
2022/07/05 05:50:38;;;;;;;5.95;2.65;;;16.40;99.90;;;;;;5073046;28;20408;-76
2022/07/05 05:53:04;;;;;;;7.35;2.10;;;16.50;99.90;;;;;;5089320;28;20114;-76
2022/07/05 05:55:31;;;;;;;6.68;2.33;;;16.50;99.90;;;;;;5052578;28;20128;-77
2022/07/05 05:58:09;;;;;;;6.75;2.40;;;16.60;99.90;;;;;;5058975;28;20041;-76
2022/07/05 06:00:35;;;;;;;7.50;2.20;;;16.60;99.90;;;;;;5069144;28;20040;-76
2022/07/05 06:03:01;;;;;;;7.72;2.40;;;16.70;99.90;;;;;;5035921;28;20049;-76
2022/07/05 06:05:27;;;;;;;7.05;2.50;;;16.80;99.90;;;;;;5035668;28;20127;-76
2022/07/05 06:07:54;;;;;;;7.60;2.53;;;16.80;99.90;;;;;;5035531;28;20036;-77
2022/07/05 06:10:26;;;;;;;7.38;2.40;;;17.00;99.90;;;;;;5052339;28;20542;-77
2022/07/05 06:12:53;;;;;;;8.38;2.38;;;16.90;99.90;;;;;;5052038;28;20452;-76
2022/07/05 06:15:20;;;;;;;7.63;2.40;;;16.90;99.90;;;;;;5086794;28;20048;-76
2022/07/05 06:17:46;;;;;;;8.93;2.50;;;17.00;99.90;;;;;;5055610;28;20119;-76
2022/07/05 06:20:14;;;;;;;9.50;2.30;;;17.10;99.90;;;;;;5072368;28;20131;-77
2022/07/05 06:22:41;;;;;;;6.18;2.13;;;17.10;99.90;;;;;;5071857;28;20495;-76
2022/07/05 06:25:07;;;;;;;7.05;2.00;;;17.20;99.90;;;;;;5088949;28;20058;-77
2022/07/05 06:27:41;;;;;;;5.25;1.88;;;17.30;99.90;;;;;;5089034;28;20040;-77
2022/07/05 06:30:08;;;;;;;7.13;1.98;;;17.40;99.90;;;;;;5089113;28;20366;-77
2022/07/05 06:32:34;;;;;;;6.78;1.90;;;17.40;99.90;;;;;;5055359;28;20044;-77
2022/07/05 06:35:00;;;;;;;6.95;2.17;;;17.50;99.90;;;;;;5037625;28;20067;-77
2022/07/05 06:37:26;;;;;;;6.88;1.98;;;17.60;99.90;;;;;;5052549;28;20486;-76
2022/07/05 06:39:51;;;;;;;8.10;1.90;;;17.60;99.90;;;;;;5055320;28;20043;-77
2022/07/05 06:42:17;;;;;;;4.00;1.60;;;17.70;99.90;;;;;;5071535;28;20502;-77
2022/07/05 06:44:43;;;;;;;5.43;2.00;;;17.70;99.90;;;;;;5088548;28;20212;-76
2022/07/05 06:47:09;;;;;;;4.97;1.80;;;17.80;99.90;;;;;;5088269;28;20043;-76
2022/07/05 06:49:35;;;;;;;4.53;1.73;;;17.90;99.90;;;;;;5071550;28;20054;-77
2022/07/05 06:52:01;;;;;;;5.07;1.75;;;18.00;99.90;;;;;;5071088;28;20040;-76
2022/07/05 06:54:26;;;;;;;5.82;1.52;;;18.10;99.90;;;;;;5088108;28;20093;-77
2022/07/05 06:56:55;;;;;;;7.90;1.90;;;18.20;99.90;;;;;;5051246;28;20040;-77
2022/07/05 06:59:21;;;;;;;6.60;1.70;;;18.30;99.90;;;;;;5067877;28;20125;-77
2022/07/05 07:01:47;;;;;;;6.72;1.73;;;18.40;99.90;;;;;;5050869;28;20055;-77
2022/07/05 07:04:13;;;;;;;9.38;1.65;;;18.50;99.90;;;;;;5035050;28;20129;-76
2022/07/05 07:06:39;;;;;;;4.65;1.40;;;18.50;99.90;;;;;;5018009;28;20058;-78
2022/07/05 07:09:22;;;;;;;4.68;1.50;;;18.60;99.90;;;;;;5039532;28;20040;-77
2022/07/05 07:11:48;;;;;;;5.65;1.50;;;18.70;99.90;;;;;;5053213;28;20502;-77
2022/07/05 07:14:16;;;;;;;7.07;1.50;;;18.70;99.90;;;;;;5081120;28;20040;-77
2022/07/05 07:16:42;;;;;;;6.03;1.70;;;18.80;99.90;;;;;;5070836;28;20499;-77
2022/07/05 07:19:08;;;;;;;7.25;1.67;;;18.90;99.90;;;;;;5054869;28;20032;-77
2022/07/05 07:21:34;;;;;;;5.97;1.55;;;18.90;99.90;;;;;;5070725;28;20058;-76
2022/07/05 07:24:00;;;;;;;5.75;1.60;;;18.80;99.90;;;;;;5071416;28;20044;-77
2022/07/05 07:26:26;;;;;;;4.22;1.30;;;18.90;99.90;;;;;;5054085;28;20105;-77
2022/07/05 07:28:52;;;;;;;6.38;1.30;;;19.00;99.90;;;;;;5088150;28;20036;-77
2022/07/05 07:31:18;;;;;;;7.95;1.60;;;19.10;99.90;;;;;;5037434;28;20275;-77
2022/07/05 07:33:43;;;;;;;4.25;1.30;;;19.20;99.90;;;;;;5071311;28;20036;-77
2022/07/05 07:36:09;;;;;;;4.60;1.30;;;19.40;99.90;;;;;;5054506;28;20036;-77
2022/07/05 07:38:35;;;;;;;4.60;1.40;;;19.40;99.90;;;;;;5071270;28;20479;-77
2022/07/05 07:41:00;;;;;;;5.22;1.30;;;19.50;99.90;;;;;;5070590;28;20062;-77
2022/07/05 07:43:26;;;;;;;3.00;0.95;;;19.60;99.90;;;;;;5054465;28;20050;-77
2022/07/05 07:45:52;;;;;;;5.55;1.23;;;19.80;99.90;;;;;;5070649;28;20468;-79
2022/07/05 07:48:18;;;;;;;3.88;1.05;;;19.90;99.90;;;;;;5054349;28;20055;-77
2022/07/05 07:50:44;;;;;;;5.93;1.33;;;20.00;99.90;;;;;;5070694;28;20044;-78
2022/07/05 07:53:10;;;;;;;6.22;1.50;;;19.90;99.90;;;;;;5054523;28;20074;-77
2022/07/05 07:55:36;;;;;;;4.68;1.10;;;19.90;99.90;;;;;;5058573;28;20499;-77
2022/07/05 07:58:03;;;;;;;5.97;1.70;;;19.90;99.90;;;;;;5051322;28;20432;-77
2022/07/05 08:00:29;;;;;;;4.25;1.50;;;19.80;99.90;;;;;;5054564;28;20040;-77
2022/07/05 08:02:55;;;;;;;4.55;1.17;;;19.60;99.90;;;;;;5051564;28;20044;-77
2022/07/05 08:05:21;;;;;;;5.68;1.40;;;19.50;99.90;;;;;;5067193;28;20191;-77
2022/07/05 08:07:46;;;;;;;5.50;1.42;;;19.40;99.90;;;;;;5033816;28;20036;-77
2022/07/05 08:10:12;;;;;;;3.63;1.05;;;19.30;99.90;;;;;;5051414;28;20094;-77
2022/07/05 08:12:38;;;;;;;4.53;1.38;;;19.30;99.90;;;;;;5070322;28;20036;-77
2022/07/05 08:15:04;;;;;;;6.05;1.55;;;19.30;99.90;;;;;;5054094;28;20040;-77
2022/07/05 08:17:29;;;;;;;5.45;1.23;;;19.30;99.90;;;;;;5070188;28;20502;-77
2022/07/05 08:22:39;;;;;;;6.25;1.30;;;19.20;99.90;;;;;;5072593;28;20047;-77
2022/07/05 08:25:05;;;;;;;6.05;1.48;;;19.10;99.90;;;;;;5087342;28;20036;-77
2022/07/05 08:27:31;;;;;;;3.95;1.25;;;19.00;99.90;;;;;;5070534;28;20040;-78
2022/07/05 08:29:57;;;;;;;4.90;1.13;;;19.00;99.90;;;;;;5070869;28;20032;-77
2022/07/05 08:32:22;;;;;;;5.38;1.33;;;19.00;99.90;;;;;;5053491;28;20048;-77
2022/07/05 08:34:48;;;;;;;6.22;1.50;;;19.00;99.90;;;;;;5070801;28;20044;-77
2022/07/05 08:37:14;;;;;;;6.00;1.50;;;19.10;99.90;;;;;;5033482;28;20040;-77
2022/07/05 08:39:39;;;;;;;5.75;1.50;;;19.10;99.90;;;;;;5034024;28;20487;-77
2022/07/05 08:42:10;;;;;;;4.43;1.38;;;19.20;99.90;;;;;;5050006;28;20079;-78
2022/07/05 08:44:38;;;;;;;5.25;1.45;;;19.20;99.90;;;;;;5050676;28;20051;-77
2022/07/05 08:47:09;;;;;;;5.28;1.75;;;19.30;99.90;;;;;;5066606;28;20116;-77
2022/07/05 08:49:37;;;;;;;8.30;1.70;;;19.40;99.90;;;;;;5067451;28;20178;-77
2022/07/05 08:52:04;;;;;;;7.68;1.15;;;19.40;99.90;;;;;;5049968;28;20044;-77
2022/07/05 08:54:31;;;;;;;5.88;1.30;;;19.40;99.90;;;;;;5062583;28;20224;-77
2022/07/05 08:56:57;;;;;;;6.30;1.33;;;19.40;99.90;;;;;;5070279;28;20036;-77
2022/07/05 08:59:22;;;;;;;3.60;1.20;;;19.40;99.90;;;;;;5053650;28;20503;-77
2022/07/05 09:01:49;;;;;;;5.95;1.35;;;19.40;99.90;;;;;;5073317;28;20047;-77
2022/07/05 09:04:17;;;;;;;5.82;1.40;;;19.40;99.90;;;;;;5073876;28;20044;-77
2022/07/05 09:06:46;;;;;;;3.15;1.20;;;19.30;99.90;;;;;;5090383;28;20072;-77
2022/07/05 09:09:15;;;;;;;5.68;1.70;;;19.30;99.90;;;;;;5067214;28;20064;-77
2022/07/05 09:11:43;;;;;;;3.45;1.05;;;19.30;99.90;;;;;;5038284;28;20041;-77
2022/07/05 09:14:22;;;;;;;5.28;1.52;;;19.40;99.90;;;;;;5073922;28;20089;-77
2022/07/05 09:16:48;;;;;;;3.72;1.30;;;19.70;99.90;;;;;;5073308;28;20044;-78
2022/07/05 09:19:14;;;;;;;4.70;1.48;;;19.70;99.90;;;;;;5056985;28;20040;-77
2022/07/05 09:21:40;;;;;;;5.90;1.33;;;19.50;99.90;;;;;;5056436;28;20056;-78
2022/07/05 09:24:09;;;;;;;4.28;1.23;;;19.70;99.90;;;;;;5073969;28;20039;-77
2022/07/05 09:26:48;;;;;;;4.45;1.30;;;19.90;99.90;;;;;;5073263;28;20040;-77
2022/07/05 09:29:17;;;;;;;6.25;1.48;;;20.20;99.90;;;;;;5090436;28;20502;-77
2022/07/05 09:31:45;;;;;;;3.53;1.45;;;20.50;99.90;;;;;;5073346;28;20043;-78
2022/07/05 09:34:19;;;;;;;6.18;1.83;;;20.50;99.90;;;;;;5073753;28;20486;-78
2022/07/05 09:36:49;;;;;;;4.40;1.17;;;20.50;99.90;;;;;;5089847;28;20559;-77
2022/07/05 09:39:14;;;;;;;4.07;1.30;;;20.50;99.90;;;;;;5090673;28;20047;-78
2022/07/05 09:41:40;;;;;;;7.88;1.42;;;20.60;99.90;;;;;;5072801;28;20440;-78
2022/07/05 09:44:06;;;;;;;4.30;1.05;;;20.80;99.90;;;;;;5056699;28;20032;-77
2022/07/05 09:46:32;;;;;;;5.65;1.40;;;21.00;99.90;;;;;;5072777;28;20190;-78
2022/07/05 09:48:58;;;;;;;6.18;1.55;;;20.80;99.90;;;;;;5073409;28;20040;-77
2022/07/05 09:51:24;;;;;;;5.78;1.58;;;20.60;99.90;;;;;;5073328;28;20024;-77
2022/07/05 09:53:55;;;;;;;7.28;1.42;;;20.30;99.90;;;;;;5069777;28;20098;-79
2022/07/05 09:56:21;;;;;;;5.53;1.42;;;20.10;99.90;;;;;;5057769;28;20044;-77
2022/07/05 09:58:47;;;;;;;4.57;1.30;;;19.90;99.90;;;;;;5065824;28;20108;-77
2022/07/05 10:01:29;;;;;;;7.32;1.38;;;19.90;99.90;;;;;;5069361;28;20048;-78
2022/07/05 10:04:02;;;;;;;6.28;1.40;;;19.80;99.90;;;;;;5053111;28;20063;-78
2022/07/05 10:06:29;;;;;;;4.07;1.20;;;19.80;99.90;;;;;;5052499;28;20040;-78
2022/07/05 10:08:55;;;;;;;5.70;1.30;;;19.60;99.90;;;;;;5052850;28;20047;-77
2022/07/05 10:11:23;;;;;;;5.50;1.50;;;19.50;99.90;;;;;;5036800;28;20037;-77
2022/07/05 10:13:53;;;;;;;4.05;1.10;;;19.70;99.90;;;;;;5072822;28;20281;-77
2022/07/05 10:16:21;;;;;;;5.85;1.48;;;20.10;99.90;;;;;;5072306;28;20462;-77
2022/07/05 10:18:51;;;;;;;4.32;1.33;;;20.50;99.90;;;;;;5072842;28;20048;-78
2022/07/05 10:21:17;;;;;;;6.20;1.30;;;20.70;99.90;;;;;;5088826;28;20096;-77
2022/07/05 10:23:53;;;;;;;7.15;1.42;;;20.90;99.90;;;;;;5089305;28;20050;-78
2022/07/05 10:26:20;;;;;;;5.63;1.50;;;21.20;99.90;;;;;;5071938;28;20056;-78
2022/07/05 10:28:49;;;;;;;4.35;1.30;;;21.40;99.90;;;;;;5072881;28;20040;-78
2022/07/05 10:31:16;;;;;;;5.47;1.40;;;21.90;99.90;;;;;;5089247;28;20093;-78
2022/07/05 10:33:43;;;;;;;4.68;1.48;;;21.90;99.90;;;;;;5056079;28;20408;-77
2022/07/05 10:36:13;;;;;;;6.07;1.60;;;22.10;99.90;;;;;;5078168;28;20423;-77
2022/07/05 10:38:44;;;;;;;4.93;1.23;;;22.20;99.90;;;;;;5044315;28;20041;-78
2022/07/05 10:41:14;;;;;;;6.22;1.20;;;22.20;99.90;;;;;;5068259;28;20043;-77
2022/07/05 10:43:39;;;;;;;6.28;1.27;;;21.70;99.90;;;;;;5068753;28;20036;-77
2022/07/05 10:46:07;;;;;;;6.57;1.50;;;21.70;99.90;;;;;;5051424;28;20044;-77
2022/07/05 10:48:34;;;;;;;8.10;1.60;;;21.60;99.90;;;;;;5035725;28;20040;-79
2022/07/05 10:51:14;;;;;;;7.32;1.52;;;21.40;99.90;;;;;;5051684;28;20036;-77
2022/07/05 10:53:39;;;;;;;7.63;1.70;;;21.20;99.90;;;;;;5074133;28;20093;-77
2022/07/05 10:56:05;;;;;;;5.78;1.40;;;21.00;99.90;;;;;;5071636;28;20048;-77
2022/07/05 10:58:30;;;;;;;9.23;1.42;;;21.00;99.90;;;;;;5071757;28;20047;-77
2022/07/05 11:01:11;;;;;;;5.95;1.70;;;21.00;99.90;;;;;;5088325;28;20073;-77
2022/07/05 11:03:41;;;;;;;3.70;1.15;;;20.80;99.90;;;;;;5071755;28;20036;-76
2022/07/05 11:06:08;;;;;;;7.28;1.40;;;21.00;99.90;;;;;;5087941;28;20052;-77
2022/07/05 11:09:09;;;;;;;4.90;1.20;;;21.30;99.90;;;;;;5044888;28;20041;-77
2022/07/05 11:11:36;;;;;;;6.88;1.50;;;21.70;99.90;;;;;;5047184;28;20040;-77
2022/07/05 11:14:03;;;;;;;4.70;1.08;;;21.90;99.90;;;;;;5071250;28;20123;-76
2022/07/05 11:16:34;;;;;;;4.75;1.35;;;22.20;99.90;;;;;;5051201;28;20036;-77
2022/07/05 11:19:11;;;;;;;4.85;1.30;;;22.30;99.90;;;;;;5068227;28;20036;-77
2022/07/05 11:21:40;;;;;;;7.05;1.67;;;22.00;99.90;;;;;;5051057;28;20110;-78
2022/07/05 11:24:19;;;;;;;6.82;1.42;;;21.70;99.90;;;;;;5067875;28;20037;-77
2022/07/05 11:26:47;;;;;;;3.47;1.25;;;21.60;99.90;;;;;;5051602;28;20041;-78
2022/07/05 11:29:45;;;;;;;6.85;1.50;;;21.60;99.90;;;;;;5068090;28;20076;-77
2022/07/05 11:32:13;;;;;;;6.35;1.30;;;22.00;99.90;;;;;;5067742;28;20051;-77
2022/07/05 11:34:40;;;;;;;7.20;1.55;;;22.40;99.90;;;;;;5051131;28;20048;-77
2022/07/05 11:37:34;;;;;;;6.03;1.40;;;22.40;99.90;;;;;;5051020;28;20051;-78
2022/07/05 11:40:11;;;;;;;5.50;1.30;;;22.30;99.90;;;;;;5061247;28;20140;-77
2022/07/05 11:42:47;;;;;;;5.68;1.50;;;22.30;99.90;;;;;;5070470;28;20048;-78
2022/07/05 11:45:13;;;;;;;3.58;1.10;;;22.00;99.90;;;;;;5070934;28;20093;-77
2022/07/05 11:47:39;;;;;;;5.50;1.40;;;21.70;99.90;;;;;;5070938;28;20085;-76
2022/07/05 11:50:05;;;;;;;5.65;1.30;;;21.80;99.90;;;;;;5054383;28;20032;-78
2022/07/05 11:52:32;;;;;;;6.57;1.75;;;21.80;99.90;;;;;;5053783;28;20490;-77
2022/07/05 11:55:00;;;;;;;5.95;1.50;;;22.00;99.90;;;;;;5059644;28;20070;-79
2022/07/05 11:57:26;;;;;;;4.30;1.27;;;21.90;99.90;;;;;;5054974;28;20105;-77
2022/07/05 11:59:52;;;;;;;5.30;1.30;;;21.80;99.90;;;;;;5067885;28;20049;-77
2022/07/05 12:02:18;;;;;;;6.07;1.45;;;21.60;99.90;;;;;;5033840;28;20040;-77
2022/07/05 12:04:54;;;;;;;12.13;1.70;;;21.10;99.90;;;;;;5067365;28;20040;-77
2022/07/05 12:07:34;;;;;;;4.45;1.38;;;20.80;99.90;;;;;;5034218;28;20033;-77
2022/07/05 12:12:47;;;;;;;6.88;1.30;;;20.50;99.90;;;;;;5080632;28;20048;-77
2022/07/05 12:15:20;;;;;;;12.95;2.00;;;20.50;99.90;;;;;;5073542;28;20498;-77
2022/07/05 12:17:51;;;;;;;6.70;1.60;;;20.40;99.90;;;;;;5050400;28;20086;-77
2022/07/05 12:20:24;;;;;;;10.38;1.60;;;20.10;99.90;;;;;;5052059;28;20191;-78
2022/07/05 12:22:50;;;;;;;6.57;1.50;;;20.10;99.90;;;;;;5070621;28;20044;-77
2022/07/05 12:25:19;;;;;;;6.97;1.50;;;20.10;99.90;;;;;;5055187;28;20115;-77
2022/07/05 12:27:47;;;;;;;9.90;1.80;;;19.80;99.90;;;;;;5067208;28;20387;-77
2022/07/05 12:30:13;;;;;;;5.68;1.50;;;19.60;99.90;;;;;;5050344;28;20040;-77
2022/07/05 12:33:05;;;;;;;5.32;1.40;;;19.50;99.90;;;;;;5033361;28;20033;-79
2022/07/05 12:35:37;;;;;;;4.82;1.42;;;19.30;99.90;;;;;;5052891;28;20044;-78
2022/07/05 12:38:12;;;;;;;7.05;1.67;;;18.90;99.90;;;;;;5084354;28;20486;-77
2022/07/05 12:40:38;;;;;;;6.53;1.67;;;18.80;99.90;;;;;;5091365;28;20040;-78
2022/07/05 12:43:18;;;;;;;8.13;1.50;;;18.80;99.90;;;;;;5074270;28;20523;-78
2022/07/05 12:46:03;;;;;;;5.32;1.30;;;18.70;99.90;;;;;;5057193;28;20101;-78
2022/07/05 12:48:39;;;;;;;6.32;1.60;;;18.60;99.90;;;;;;5074261;28;20096;-79
2022/07/05 12:51:07;;;;;;;6.47;1.58;;;18.60;99.90;;;;;;5074188;28;20044;-78
2022/07/05 12:59:10;;;;;;;4.95;1.52;;;19.00;99.90;;;;;;5079290;28;20130;-77
2022/07/05 13:01:42;;;;;;;4.32;1.52;;;19.10;99.90;;;;;;5057022;28;20043;-78